sensor_id;sensor_type;location;lat;lon;timestamp;temperature;humidity
5086;DHT22;4715;51.660;7.082;2023-07-24T00:01:05;19.00;99.90
5086;DHT22;4715;51.660;7.082;2023-07-24T00:03:28;19.00;99.90
5086;DHT22;4715;51.660;7.082;2023-07-24T00:05:50;19.00;99.90
5086;DHT22;4715;51.660;7.082;2023-07-24T00:08:15;19.00;99.90
5086;DHT22;4715;51.660;7.082;2023-07-24T00:10:39;19.00;99.90
5086;DHT22;4715;51.660;7.082;2023-07-24T00:13:02;19.00;99.90
5086;DHT22;4715;51.660;7.082;2023-07-24T00:15:25;19.00;99.90
5086;DHT22;4715;51.660;7.082;2023-07-24T00:17:47;18.90;99.90
5086;DHT22;4715;51.660;7.082;2023-07-24T00:20:10;18.90;99.90
5086;DHT22;4715;51.660;7.082;2023-07-24T00:22:32;18.90;99.90
5086;DHT22;4715;51.660;7.082;2023-07-24T00:24:54;18.80;99.90
5086;DHT22;4715;51.660;7.082;2023-07-24T00:27:17;18.80;99.90
5086;DHT22;4715;51.660;7.082;2023-07-24T00:29:39;18.80;99.90
5086;DHT22;4715;51.660;7.082;2023-07-24T00:32:01;18.80;99.90
5086;DHT22;4715;51.660;7.082;2023-07-24T00:34:22;18.80;99.90
5086;DHT22;4715;51.660;7.082;2023-07-24T00:36:44;18.70;99.90
5086;DHT22;4715;51.660;7.082;2023-07-24T00:39:06;18.70;99.90
5086;DHT22;4715;51.660;7.082;2023-07-24T00:41:28;18.70;99.90
5086;DHT22;4715;51.660;7.082;2023-07-24T00:43:51;18.70;99.90
5086;DHT22;4715;51.660;7.082;2023-07-24T00:46:14;18.70;99.90
5086;DHT22;4715;51.660;7.082;2023-07-24T00:48:37;18.60;99.90
5086;DHT22;4715;51.660;7.082;2023-07-24T00:51:01;18.60;99.90
5086;DHT22;4715;51.660;7.082;2023-07-24T00:53:23;18.60;99.90
5086;DHT22;4715;51.660;7.082;2023-07-24T00:55:46;18.60;99.90
5086;DHT22;4715;51.660;7.082;2023-07-24T00:58:11;18.60;99.90
5086;DHT22;4715;51.660;7.082;2023-07-24T01:00:34;18.60;99.90
5086;DHT22;4715;51.660;7.082;2023-07-24T01:02:56;18.60;99.90
5086;DHT22;4715;51.660;7.082;2023-07-24T01:05:18;18.60;99.90
5086;DHT22;4715;51.660;7.082;2023-07-24T01:07:42;18.60;99.90
5086;DHT22;4715;51.660;7.082;2023-07-24T01:10:04;18.50;99.90
5086;DHT22;4715;51.660;7.082;2023-07-24T01:12:33;18.50;99.90
5086;DHT22;4715;51.660;7.082;2023-07-24T01:15:03;18.50;99.90
5086;DHT22;4715;51.660;7.082;2023-07-24T01:17:35;18.50;99.90
5086;DHT22;4715;51.660;7.082;2023-07-24T01:20:04;18.50;99.90
5086;DHT22;4715;51.660;7.082;2023-07-24T01:22:39;18.50;99.90
5086;DHT22;4715;51.660;7.082;2023-07-24T01:25:10;18.50;99.90
5086;DHT22;4715;51.660;7.082;2023-07-24T01:27:35;18.50;99.90
5086;DHT22;4715;51.660;7.082;2023-07-24T01:29:57;18.50;99.90
5086;DHT22;4715;51.660;7.082;2023-07-24T01:32:19;18.50;99.90
5086;DHT22;4715;51.660;7.082;2023-07-24T01:34:44;18.60;99.90
5086;DHT22;4715;51.660;7.082;2023-07-24T01:37:07;18.60;99.90
5086;DHT22;4715;51.660;7.082;2023-07-24T01:39:29;18.60;99.90
5086;DHT22;4715;51.660;7.082;2023-07-24T01:41:53;18.60;99.90
5086;DHT22;4715;51.660;7.082;2023-07-24T01:44:18;18.60;99.90
5086;DHT22;4715;51.660;7.082;2023-07-24T01:46:40;18.60;99.90
5086;DHT22;4715;51.660;7.082;2023-07-24T01:49:02;18.60;99.90
5086;DHT22;4715;51.660;7.082;2023-07-24T01:51:27;18.60;99.90
5086;DHT22;4715;51.660;7.082;2023-07-24T01:53:48;18.60;99.90
5086;DHT22;4715;51.660;7.082;2023-07-24T01:56:11;18.60;99.90
5086;DHT22;4715;51.660;7.082;2023-07-24T01:58:36;18.60;99.90
5086;DHT22;4715;51.660;7.082;2023-07-24T02:01:00;18.60;99.90
5086;DHT22;4715;51.660;7.082;2023-07-24T02:03:22;18.70;99.90
5086;DHT22;4715;51.660;7.082;2023-07-24T02:05:49;18.70;99.90
5086;DHT22;4715;51.660;7.082;2023-07-24T02:08:11;18.70;99.90
5086;DHT22;4715;51.660;7.082;2023-07-24T02:10:37;18.70;99.90
5086;DHT22;4715;51.660;7.082;2023-07-24T02:12:59;18.70;99.90
5086;DHT22;4715;51.660;7.082;2023-07-24T02:15:21;18.70;99.90
5086;DHT22;4715;51.660;7.082;2023-07-24T02:17:45;18.70;99.90
5086;DHT22;4715;51.660;7.082;2023-07-24T02:20:08;18.70;99.90
5086;DHT22;4715;51.660;7.082;2023-07-24T02:22:33;18.70;99.90
5086;DHT22;4715;51.660;7.082;2023-07-24T02:24:56;18.70;99.90
5086;DHT22;4715;51.660;7.082;2023-07-24T02:27:25;18.80;99.90
5086;DHT22;4715;51.660;7.082;2023-07-24T02:29:51;18.80;99.90
5086;DHT22;4715;51.660;7.082;2023-07-24T02:32:13;18.80;99.90
5086;DHT22;4715;51.660;7.082;2023-07-24T02:34:39;18.80;99.90
5086;DHT22;4715;51.660;7.082;2023-07-24T02:37:02;18.80;99.90
5086;DHT22;4715;51.660;7.082;2023-07-24T02:39:24;18.80;99.90
5086;DHT22;4715;51.660;7.082;2023-07-24T02:41:47;18.80;99.90
5086;DHT22;4715;51.660;7.082;2023-07-24T02:44:10;18.80;99.90
5086;DHT22;4715;51.660;7.082;2023-07-24T02:46:33;18.80;99.90
5086;DHT22;4715;51.660;7.082;2023-07-24T02:48:56;18.80;99.90
5086;DHT22;4715;51.660;7.082;2023-07-24T02:51:22;18.80;99.90
5086;DHT22;4715;51.660;7.082;2023-07-24T02:53:44;18.80;99.90
5086;DHT22;4715;51.660;7.082;2023-07-24T02:56:08;18.80;99.90
5086;DHT22;4715;51.660;7.082;2023-07-24T02:58:36;18.80;99.90
5086;DHT22;4715;51.660;7.082;2023-07-24T03:01:03;18.80;99.90
5086;DHT22;4715;51.660;7.082;2023-07-24T03:03:27;18.80;99.90
5086;DHT22;4715;51.660;7.082;2023-07-24T03:05:48;18.80;99.90
5086;DHT22;4715;51.660;7.082;2023-07-24T03:08:12;18.80;99.90
5086;DHT22;4715;51.660;7.082;2023-07-24T03:10:40;18.80;99.90
5086;DHT22;4715;51.660;7.082;2023-07-24T03:13:03;18.80;99.90
5086;DHT22;4715;51.660;7.082;2023-07-24T03:15:25;18.80;99.90
5086;DHT22;4715;51.660;7.082;2023-07-24T03:17:47;18.80;99.90
5086;DHT22;4715;51.660;7.082;2023-07-24T03:20:16;18.80;99.90
5086;DHT22;4715;51.660;7.082;2023-07-24T03:22:38;18.80;99.90
5086;DHT22;4715;51.660;7.082;2023-07-24T03:25:05;18.80;99.90
5086;DHT22;4715;51.660;7.082;2023-07-24T03:27:29;18.80;99.90
5086;DHT22;4715;51.660;7.082;2023-07-24T03:30:07;18.80;99.90
5086;DHT22;4715;51.660;7.082;2023-07-24T03:32:37;18.80;99.90
5086;DHT22;4715;51.660;7.082;2023-07-24T03:35:08;18.80;99.90
5086;DHT22;4715;51.660;7.082;2023-07-24T03:37:30;18.80;99.90
5086;DHT22;4715;51.660;7.082;2023-07-24T03:39:52;18.80;99.90
5086;DHT22;4715;51.660;7.082;2023-07-24T03:42:27;18.80;99.90
5086;DHT22;4715;51.660;7.082;2023-07-24T03:44:49;18.80;99.90
5086;DHT22;4715;51.660;7.082;2023-07-24T03:47:12;18.80;99.90
5086;DHT22;4715;51.660;7.082;2023-07-24T03:49:37;18.70;99.90
5086;DHT22;4715;51.660;7.082;2023-07-24T03:52:00;18.70;99.90
5086;DHT22;4715;51.660;7.082;2023-07-24T03:54:22;18.70;99.90
5086;DHT22;4715;51.660;7.082;2023-07-24T03:56:46;18.60;99.90
5086;DHT22;4715;51.660;7.082;2023-07-24T03:59:17;18.60;99.90
5086;DHT22;4715;51.660;7.082;2023-07-24T04:01:40;18.60;99.90
5086;DHT22;4715;51.660;7.082;2023-07-24T04:04:04;18.60;99.90
5086;DHT22;4715;51.660;7.082;2023-07-24T04:06:27;18.50;99.90
5086;DHT22;4715;51.660;7.082;2023-07-24T04:08:49;18.50;99.90
5086;DHT22;4715;51.660;7.082;2023-07-24T04:11:16;18.50;99.90
5086;DHT22;4715;51.660;7.082;2023-07-24T04:13:40;18.50;99.90
5086;DHT22;4715;51.660;7.082;2023-07-24T04:16:04;18.50;99.90
5086;DHT22;4715;51.660;7.082;2023-07-24T04:18:26;18.40;99.90
5086;DHT22;4715;51.660;7.082;2023-07-24T04:20:50;18.40;99.90
5086;DHT22;4715;51.660;7.082;2023-07-24T04:23:14;18.40;99.90
5086;DHT22;4715;51.660;7.082;2023-07-24T04:25:40;18.40;99.90
5086;DHT22;4715;51.660;7.082;2023-07-24T04:28:02;18.40;99.90
5086;DHT22;4715;51.660;7.082;2023-07-24T04:30:27;18.40;99.90
5086;DHT22;4715;51.660;7.082;2023-07-24T04:32:53;18.40;99.90
5086;DHT22;4715;51.660;7.082;2023-07-24T04:35:16;18.40;99.90
5086;DHT22;4715;51.660;7.082;2023-07-24T04:37:39;18.30;99.90
5086;DHT22;4715;51.660;7.082;2023-07-24T04:40:04;18.30;99.90
5086;DHT22;4715;51.660;7.082;2023-07-24T04:42:27;18.40;99.90
5086;DHT22;4715;51.660;7.082;2023-07-24T04:44:50;18.40;99.90
5086;DHT22;4715;51.660;7.082;2023-07-24T04:47:14;18.40;99.90
5086;DHT22;4715;51.660;7.082;2023-07-24T04:49:39;18.40;99.90
5086;DHT22;4715;51.660;7.082;2023-07-24T04:52:01;18.30;99.90
5086;DHT22;4715;51.660;7.082;2023-07-24T04:54:25;18.30;99.90
5086;DHT22;4715;51.660;7.082;2023-07-24T04:56:51;18.30;99.90
5086;DHT22;4715;51.660;7.082;2023-07-24T04:59:12;18.30;99.90
5086;DHT22;4715;51.660;7.082;2023-07-24T05:01:37;18.30;99.90
5086;DHT22;4715;51.660;7.082;2023-07-24T05:03:59;18.30;99.90
5086;DHT22;4715;51.660;7.082;2023-07-24T05:06:31;18.30;99.90
5086;DHT22;4715;51.660;7.082;2023-07-24T05:08:55;18.30;99.90
5086;DHT22;4715;51.660;7.082;2023-07-24T05:11:20;18.30;99.90
5086;DHT22;4715;51.660;7.082;2023-07-24T05:13:42;18.30;99.90
5086;DHT22;4715;51.660;7.082;2023-07-24T05:16:04;18.30;99.90
5086;DHT22;4715;51.660;7.082;2023-07-24T05:18:26;18.30;99.90
5086;DHT22;4715;51.660;7.082;2023-07-24T05:20:48;18.30;99.90
5086;DHT22;4715;51.660;7.082;2023-07-24T05:23:13;18.30;99.90
5086;DHT22;4715;51.660;7.082;2023-07-24T05:25:38;18.30;99.90
5086;DHT22;4715;51.660;7.082;2023-07-24T05:28:03;18.30;99.90
5086;DHT22;4715;51.660;7.082;2023-07-24T05:30:26;18.30;99.90
5086;DHT22;4715;51.660;7.082;2023-07-24T05:32:49;18.30;99.90
5086;DHT22;4715;51.660;7.082;2023-07-24T05:35:12;18.30;99.90
5086;DHT22;4715;51.660;7.082;2023-07-24T05:37:35;18.30;99.90
5086;DHT22;4715;51.660;7.082;2023-07-24T05:39:59;18.30;99.90
5086;DHT22;4715;51.660;7.082;2023-07-24T05:42:23;18.30;99.90
5086;DHT22;4715;51.660;7.082;2023-07-24T05:44:48;18.30;99.90
5086;DHT22;4715;51.660;7.082;2023-07-24T05:47:10;18.30;99.90
5086;DHT22;4715;51.660;7.082;2023-07-24T05:49:35;18.30;99.90
5086;DHT22;4715;51.660;7.082;2023-07-24T05:51:57;18.30;99.90
5086;DHT22;4715;51.660;7.082;2023-07-24T05:54:20;18.30;99.90
5086;DHT22;4715;51.660;7.082;2023-07-24T05:56:43;18.30;99.90
5086;DHT22;4715;51.660;7.082;2023-07-24T05:59:05;18.30;99.90
5086;DHT22;4715;51.660;7.082;2023-07-24T06:01:26;18.30;99.90
5086;DHT22;4715;51.660;7.082;2023-07-24T06:03:48;18.30;99.90
5086;DHT22;4715;51.660;7.082;2023-07-24T06:06:10;18.30;99.90
5086;DHT22;4715;51.660;7.082;2023-07-24T06:08:32;18.30;99.90
5086;DHT22;4715;51.660;7.082;2023-07-24T06:10:54;18.30;99.90
5086;DHT22;4715;51.660;7.082;2023-07-24T06:13:18;18.40;99.90
5086;DHT22;4715;51.660;7.082;2023-07-24T06:15:40;18.40;99.90
5086;DHT22;4715;51.660;7.082;2023-07-24T06:18:02;18.40;99.90
5086;DHT22;4715;51.660;7.082;2023-07-24T06:20:24;18.40;99.90
5086;DHT22;4715;51.660;7.082;2023-07-24T06:22:46;18.50;99.90
5086;DHT22;4715;51.660;7.082;2023-07-24T06:25:08;18.50;99.90
5086;DHT22;4715;51.660;7.082;2023-07-24T06:27:30;18.50;99.90
5086;DHT22;4715;51.660;7.082;2023-07-24T06:29:53;18.50;99.90
5086;DHT22;4715;51.660;7.082;2023-07-24T06:32:15;18.50;99.90
5086;DHT22;4715;51.660;7.082;2023-07-24T06:34:38;18.50;99.90
5086;DHT22;4715;51.660;7.082;2023-07-24T06:37:00;18.50;99.90
5086;DHT22;4715;51.660;7.082;2023-07-24T06:39:23;18.50;99.90
5086;DHT22;4715;51.660;7.082;2023-07-24T06:41:45;18.50;99.90
5086;DHT22;4715;51.660;7.082;2023-07-24T06:44:07;18.50;99.90
5086;DHT22;4715;51.660;7.082;2023-07-24T06:46:30;18.50;99.90
5086;DHT22;4715;51.660;7.082;2023-07-24T06:48:52;18.50;99.90
5086;DHT22;4715;51.660;7.082;2023-07-24T06:51:14;18.50;99.90
5086;DHT22;4715;51.660;7.082;2023-07-24T06:53:36;18.50;99.90
5086;DHT22;4715;51.660;7.082;2023-07-24T06:56:00;18.50;99.90
5086;DHT22;4715;51.660;7.082;2023-07-24T06:58:22;18.60;99.90
5086;DHT22;4715;51.660;7.082;2023-07-24T07:00:44;18.60;99.90
5086;DHT22;4715;51.660;7.082;2023-07-24T07:03:09;18.60;99.90
5086;DHT22;4715;51.660;7.082;2023-07-24T07:05:32;18.60;99.90
5086;DHT22;4715;51.660;7.082;2023-07-24T07:07:53;18.60;99.90
5086;DHT22;4715;51.660;7.082;2023-07-24T07:10:15;18.70;99.90
5086;DHT22;4715;51.660;7.082;2023-07-24T07:12:38;18.70;99.90
5086;DHT22;4715;51.660;7.082;2023-07-24T07:15:00;18.70;99.90
5086;DHT22;4715;51.660;7.082;2023-07-24T07:17:21;18.70;99.90
5086;DHT22;4715;51.660;7.082;2023-07-24T07:19:46;18.70;99.90
5086;DHT22;4715;51.660;7.082;2023-07-24T07:22:07;18.70;99.90
5086;DHT22;4715;51.660;7.082;2023-07-24T07:24:31;18.70;99.90
5086;DHT22;4715;51.660;7.082;2023-07-24T07:26:53;18.80;99.90
5086;DHT22;4715;51.660;7.082;2023-07-24T07:29:15;18.80;99.90
5086;DHT22;4715;51.660;7.082;2023-07-24T07:31:37;18.80;99.90
5086;DHT22;4715;51.660;7.082;2023-07-24T07:33:58;18.80;99.90
5086;DHT22;4715;51.660;7.082;2023-07-24T07:36:22;18.80;99.90
5086;DHT22;4715;51.660;7.082;2023-07-24T07:38:44;18.80;99.90
5086;DHT22;4715;51.660;7.082;2023-07-24T07:41:06;18.80;99.90
5086;DHT22;4715;51.660;7.082;2023-07-24T07:43:28;18.80;99.90
5086;DHT22;4715;51.660;7.082;2023-07-24T07:45:50;18.90;99.90
5086;DHT22;4715;51.660;7.082;2023-07-24T07:48:12;18.90;99.90
5086;DHT22;4715;51.660;7.082;2023-07-24T07:50:34;18.90;99.90
5086;DHT22;4715;51.660;7.082;2023-07-24T07:52:58;19.00;99.90
5086;DHT22;4715;51.660;7.082;2023-07-24T07:55:20;19.00;99.90
5086;DHT22;4715;51.660;7.082;2023-07-24T07:57:42;19.00;99.90
5086;DHT22;4715;51.660;7.082;2023-07-24T08:00:05;19.00;99.90
5086;DHT22;4715;51.660;7.082;2023-07-24T08:02:27;19.00;99.90
5086;DHT22;4715;51.660;7.082;2023-07-24T08:04:49;18.90;99.90
5086;DHT22;4715;51.660;7.082;2023-07-24T08:07:11;19.00;99.90
5086;DHT22;4715;51.660;7.082;2023-07-24T08:09:34;19.00;99.90
5086;DHT22;4715;51.660;7.082;2023-07-24T08:11:56;19.00;99.90
5086;DHT22;4715;51.660;7.082;2023-07-24T08:14:18;19.00;99.90
5086;DHT22;4715;51.660;7.082;2023-07-24T08:16:42;19.10;99.90
5086;DHT22;4715;51.660;7.082;2023-07-24T08:19:04;19.10;99.90
5086;DHT22;4715;51.660;7.082;2023-07-24T08:21:26;19.10;99.90
5086;DHT22;4715;51.660;7.082;2023-07-24T08:23:48;19.10;99.90
5086;DHT22;4715;51.660;7.082;2023-07-24T08:26:12;19.20;99.90
5086;DHT22;4715;51.660;7.082;2023-07-24T08:28:34;19.30;99.90
5086;DHT22;4715;51.660;7.082;2023-07-24T08:30:56;19.30;99.90
5086;DHT22;4715;51.660;7.082;2023-07-24T08:33:19;19.20;99.90
5086;DHT22;4715;51.660;7.082;2023-07-24T08:35:41;19.20;99.90
5086;DHT22;4715;51.660;7.082;2023-07-24T08:38:02;19.20;99.90
5086;DHT22;4715;51.660;7.082;2023-07-24T08:40:24;19.20;99.90
5086;DHT22;4715;51.660;7.082;2023-07-24T08:42:49;19.20;99.90
5086;DHT22;4715;51.660;7.082;2023-07-24T08:45:12;19.30;99.90
5086;DHT22;4715;51.660;7.082;2023-07-24T08:47:35;19.30;99.90
5086;DHT22;4715;51.660;7.082;2023-07-24T08:49:58;19.40;99.90
5086;DHT22;4715;51.660;7.082;2023-07-24T08:52:20;19.50;99.90
5086;DHT22;4715;51.660;7.082;2023-07-24T08:54:44;19.50;99.90
5086;DHT22;4715;51.660;7.082;2023-07-24T08:57:07;19.60;99.90
5086;DHT22;4715;51.660;7.082;2023-07-24T08:59:30;19.70;99.90
5086;DHT22;4715;51.660;7.082;2023-07-24T09:01:52;19.80;99.90
5086;DHT22;4715;51.660;7.082;2023-07-24T09:04:15;19.90;99.90
5086;DHT22;4715;51.660;7.082;2023-07-24T09:06:37;19.90;99.90
5086;DHT22;4715;51.660;7.082;2023-07-24T09:08:59;20.00;99.90
5086;DHT22;4715;51.660;7.082;2023-07-24T09:11:21;20.00;99.90
5086;DHT22;4715;51.660;7.082;2023-07-24T09:13:43;20.10;99.90
5086;DHT22;4715;51.660;7.082;2023-07-24T09:16:06;20.30;99.90
5086;DHT22;4715;51.660;7.082;2023-07-24T09:18:38;20.40;99.90
5086;DHT22;4715;51.660;7.082;2023-07-24T09:21:00;20.60;99.90
5086;DHT22;4715;51.660;7.082;2023-07-24T09:23:27;20.70;99.90
5086;DHT22;4715;51.660;7.082;2023-07-24T09:25:50;20.90;99.90
5086;DHT22;4715;51.660;7.082;2023-07-24T09:28:13;20.90;99.90
5086;DHT22;4715;51.660;7.082;2023-07-24T09:30:35;21.00;99.90
5086;DHT22;4715;51.660;7.082;2023-07-24T09:33:00;20.90;99.90
5086;DHT22;4715;51.660;7.082;2023-07-24T09:35:22;21.00;99.90
5086;DHT22;4715;51.660;7.082;2023-07-24T09:37:47;21.00;99.90
5086;DHT22;4715;51.660;7.082;2023-07-24T09:40:10;20.90;99.90
5086;DHT22;4715;51.660;7.082;2023-07-24T09:42:34;20.90;99.90
5086;DHT22;4715;51.660;7.082;2023-07-24T09:44:56;20.90;99.90
5086;DHT22;4715;51.660;7.082;2023-07-24T09:47:18;20.90;99.90
5086;DHT22;4715;51.660;7.082;2023-07-24T09:49:42;20.80;99.90
5086;DHT22;4715;51.660;7.082;2023-07-24T09:52:07;20.90;99.90
5086;DHT22;4715;51.660;7.082;2023-07-24T09:54:33;20.90;99.90
5086;DHT22;4715;51.660;7.082;2023-07-24T09:57:01;20.80;99.90
5086;DHT22;4715;51.660;7.082;2023-07-24T09:59:26;20.80;99.90
5086;DHT22;4715;51.660;7.082;2023-07-24T10:01:49;20.80;99.90
5086;DHT22;4715;51.660;7.082;2023-07-24T10:04:13;20.80;99.90
5086;DHT22;4715;51.660;7.082;2023-07-24T10:06:38;20.80;99.90
5086;DHT22;4715;51.660;7.082;2023-07-24T10:09:00;20.80;99.90
5086;DHT22;4715;51.660;7.082;2023-07-24T10:11:26;20.80;99.90
5086;DHT22;4715;51.660;7.082;2023-07-24T10:13:49;20.90;99.90
5086;DHT22;4715;51.660;7.082;2023-07-24T10:16:12;20.80;99.90
5086;DHT22;4715;51.660;7.082;2023-07-24T10:18:41;20.90;99.90
5086;DHT22;4715;51.660;7.082;2023-07-24T10:21:04;20.90;99.90
5086;DHT22;4715;51.660;7.082;2023-07-24T10:23:28;20.90;99.90
5086;DHT22;4715;51.660;7.082;2023-07-24T10:25:50;20.90;99.90
5086;DHT22;4715;51.660;7.082;2023-07-24T10:28:13;20.90;99.90
5086;DHT22;4715;51.660;7.082;2023-07-24T10:30:37;20.90;99.90
5086;DHT22;4715;51.660;7.082;2023-07-24T10:33:10;21.00;99.90
5086;DHT22;4715;51.660;7.082;2023-07-24T10:35:37;21.00;99.90
5086;DHT22;4715;51.660;7.082;2023-07-24T10:37:59;20.90;99.90
5086;DHT22;4715;51.660;7.082;2023-07-24T10:40:24;20.90;99.90
5086;DHT22;4715;51.660;7.082;2023-07-24T10:42:47;20.90;99.90
5086;DHT22;4715;51.660;7.082;2023-07-24T10:45:20;20.70;99.90
5086;DHT22;4715;51.660;7.082;2023-07-24T10:47:41;20.50;99.90
5086;DHT22;4715;51.660;7.082;2023-07-24T10:50:05;20.30;99.90
5086;DHT22;4715;51.660;7.082;2023-07-24T10:52:28;20.10;99.90
5086;DHT22;4715;51.660;7.082;2023-07-24T10:54:51;19.90;99.90
5086;DHT22;4715;51.660;7.082;2023-07-24T10:57:14;19.80;99.90
5086;DHT22;4715;51.660;7.082;2023-07-24T10:59:37;19.60;99.90
5086;DHT22;4715;51.660;7.082;2023-07-24T11:01:59;19.60;99.90
5086;DHT22;4715;51.660;7.082;2023-07-24T11:04:23;19.60;99.90
5086;DHT22;4715;51.660;7.082;2023-07-24T11:06:53;19.50;99.90
5086;DHT22;4715;51.660;7.082;2023-07-24T11:09:18;19.50;99.90
5086;DHT22;4715;51.660;7.082;2023-07-24T11:11:40;19.50;99.90
5086;DHT22;4715;51.660;7.082;2023-07-24T11:14:04;19.50;99.90
5086;DHT22;4715;51.660;7.082;2023-07-24T11:16:26;19.50;99.90
5086;DHT22;4715;51.660;7.082;2023-07-24T11:18:49;19.50;99.90
5086;DHT22;4715;51.660;7.082;2023-07-24T11:21:12;19.60;99.90
5086;DHT22;4715;51.660;7.082;2023-07-24T11:23:34;19.60;99.90
5086;DHT22;4715;51.660;7.082;2023-07-24T11:25:57;19.60;99.90
5086;DHT22;4715;51.660;7.082;2023-07-24T11:28:19;19.60;99.90
5086;DHT22;4715;51.660;7.082;2023-07-24T11:30:43;19.60;99.90
5086;DHT22;4715;51.660;7.082;2023-07-24T11:33:07;19.60;99.90
5086;DHT22;4715;51.660;7.082;2023-07-24T11:35:30;19.60;99.90
5086;DHT22;4715;51.660;7.082;2023-07-24T11:37:51;19.60;99.90
5086;DHT22;4715;51.660;7.082;2023-07-24T11:40:13;19.50;99.90
5086;DHT22;4715;51.660;7.082;2023-07-24T11:42:40;19.50;99.90
5086;DHT22;4715;51.660;7.082;2023-07-24T11:45:02;19.40;99.90
5086;DHT22;4715;51.660;7.082;2023-07-24T11:47:26;19.30;99.90
5086;DHT22;4715;51.660;7.082;2023-07-24T11:49:57;19.20;99.90
5086;DHT22;4715;51.660;7.082;2023-07-24T11:52:19;19.20;99.90
5086;DHT22;4715;51.660;7.082;2023-07-24T11:54:41;19.10;99.90
5086;DHT22;4715;51.660;7.082;2023-07-24T11:57:03;19.00;99.90
5086;DHT22;4715;51.660;7.082;2023-07-24T11:59:37;18.90;99.90
5086;DHT22;4715;51.660;7.082;2023-07-24T12:02:01;18.70;99.90
5086;DHT22;4715;51.660;7.082;2023-07-24T12:04:24;18.60;99.90
5086;DHT22;4715;51.660;7.082;2023-07-24T12:06:46;18.50;99.90
5086;DHT22;4715;51.660;7.082;2023-07-24T12:09:08;18.40;99.90
5086;DHT22;4715;51.660;7.082;2023-07-24T12:11:32;18.40;99.90
5086;DHT22;4715;51.660;7.082;2023-07-24T12:13:54;18.40;99.90
5086;DHT22;4715;51.660;7.082;2023-07-24T12:16:16;18.40;99.90
5086;DHT22;4715;51.660;7.082;2023-07-24T12:18:38;18.40;99.90
5086;DHT22;4715;51.660;7.082;2023-07-24T12:21:02;18.40;99.90
5086;DHT22;4715;51.660;7.082;2023-07-24T12:23:24;18.50;99.90
5086;DHT22;4715;51.660;7.082;2023-07-24T12:25:47;18.50;99.90
5086;DHT22;4715;51.660;7.082;2023-07-24T12:28:09;18.60;99.90
5086;DHT22;4715;51.660;7.082;2023-07-24T12:30:31;18.80;99.90
5086;DHT22;4715;51.660;7.082;2023-07-24T12:32:53;18.90;99.90
5086;DHT22;4715;51.660;7.082;2023-07-24T12:35:16;19.00;99.90
5086;DHT22;4715;51.660;7.082;2023-07-24T12:37:39;19.20;99.90
5086;DHT22;4715;51.660;7.082;2023-07-24T12:40:02;19.30;99.90
5086;DHT22;4715;51.660;7.082;2023-07-24T12:42:24;19.50;99.90
5086;DHT22;4715;51.660;7.082;2023-07-24T12:44:47;19.50;99.90
5086;DHT22;4715;51.660;7.082;2023-07-24T12:47:09;19.50;99.90
5086;DHT22;4715;51.660;7.082;2023-07-24T12:49:32;19.50;99.90
5086;DHT22;4715;51.660;7.082;2023-07-24T12:51:53;19.40;99.90
5086;DHT22;4715;51.660;7.082;2023-07-24T12:54:17;19.50;99.90
5086;DHT22;4715;51.660;7.082;2023-07-24T12:56:40;19.60;99.90
5086;DHT22;4715;51.660;7.082;2023-07-24T12:59:03;19.70;99.90
5086;DHT22;4715;51.660;7.082;2023-07-24T13:01:25;19.90;99.90
5086;DHT22;4715;51.660;7.082;2023-07-24T13:03:50;19.90;99.90
5086;DHT22;4715;51.660;7.082;2023-07-24T13:06:12;19.90;99.90
5086;DHT22;4715;51.660;7.082;2023-07-24T13:08:34;19.90;99.90
5086;DHT22;4715;51.660;7.082;2023-07-24T13:10:57;19.90;99.90
5086;DHT22;4715;51.660;7.082;2023-07-24T13:13:19;20.00;99.90
5086;DHT22;4715;51.660;7.082;2023-07-24T13:15:41;20.00;99.90
5086;DHT22;4715;51.660;7.082;2023-07-24T13:18:03;20.20;99.90
5086;DHT22;4715;51.660;7.082;2023-07-24T13:20:25;20.30;99.90
5086;DHT22;4715;51.660;7.082;2023-07-24T13:22:47;20.50;99.90
5086;DHT22;4715;51.660;7.082;2023-07-24T13:25:09;20.60;99.90
5086;DHT22;4715;51.660;7.082;2023-07-24T13:27:32;20.70;99.90
5086;DHT22;4715;51.660;7.082;2023-07-24T13:29:54;20.80;99.90
5086;DHT22;4715;51.660;7.082;2023-07-24T13:32:16;20.80;99.90
5086;DHT22;4715;51.660;7.082;2023-07-24T13:34:38;20.90;99.90
5086;DHT22;4715;51.660;7.082;2023-07-24T13:37:01;20.90;99.90
5086;DHT22;4715;51.660;7.082;2023-07-24T13:39:23;20.90;99.90
5086;DHT22;4715;51.660;7.082;2023-07-24T13:41:45;20.90;99.90
5086;DHT22;4715;51.660;7.082;2023-07-24T13:44:09;20.90;99.90
5086;DHT22;4715;51.660;7.082;2023-07-24T13:46:31;20.90;99.90
5086;DHT22;4715;51.660;7.082;2023-07-24T13:48:53;21.00;99.90
5086;DHT22;4715;51.660;7.082;2023-07-24T13:51:16;21.00;99.90
5086;DHT22;4715;51.660;7.082;2023-07-24T13:53:38;21.00;99.90
5086;DHT22;4715;51.660;7.082;2023-07-24T13:56:01;21.00;99.90
5086;DHT22;4715;51.660;7.082;2023-07-24T13:58:25;21.10;99.90
5086;DHT22;4715;51.660;7.082;2023-07-24T14:00:48;21.20;99.90
5086;DHT22;4715;51.660;7.082;2023-07-24T14:03:10;21.30;99.90
5086;DHT22;4715;51.660;7.082;2023-07-24T14:05:34;21.40;99.90
5086;DHT22;4715;51.660;7.082;2023-07-24T14:07:58;21.40;99.90
5086;DHT22;4715;51.660;7.082;2023-07-24T14:10:20;21.50;99.90
5086;DHT22;4715;51.660;7.082;2023-07-24T14:12:41;21.60;99.90
5086;DHT22;4715;51.660;7.082;2023-07-24T14:15:04;21.60;99.90
5086;DHT22;4715;51.660;7.082;2023-07-24T14:17:31;21.70;99.90
5086;DHT22;4715;51.660;7.082;2023-07-24T14:19:53;21.70;99.90
5086;DHT22;4715;51.660;7.082;2023-07-24T14:22:15;21.60;99.90
5086;DHT22;4715;51.660;7.082;2023-07-24T14:24:37;21.60;99.90
5086;DHT22;4715;51.660;7.082;2023-07-24T14:26:59;21.50;99.90
5086;DHT22;4715;51.660;7.082;2023-07-24T14:29:21;21.60;99.90
5086;DHT22;4715;51.660;7.082;2023-07-24T14:31:43;21.70;99.90
5086;DHT22;4715;51.660;7.082;2023-07-24T14:34:08;21.80;99.90
5086;DHT22;4715;51.660;7.082;2023-07-24T14:36:34;21.90;99.90
5086;DHT22;4715;51.660;7.082;2023-07-24T14:38:56;22.00;99.90
5086;DHT22;4715;51.660;7.082;2023-07-24T14:41:18;21.90;99.90
5086;DHT22;4715;51.660;7.082;2023-07-24T14:43:40;22.00;99.90
5086;DHT22;4715;51.660;7.082;2023-07-24T14:46:01;22.00;99.90
5086;DHT22;4715;51.660;7.082;2023-07-24T14:48:24;22.10;99.90
5086;DHT22;4715;51.660;7.082;2023-07-24T14:50:47;22.30;99.90
5086;DHT22;4715;51.660;7.082;2023-07-24T14:53:09;22.30;99.90
5086;DHT22;4715;51.660;7.082;2023-07-24T14:55:31;22.40;99.90
5086;DHT22;4715;51.660;7.082;2023-07-24T14:57:53;22.40;99.90
5086;DHT22;4715;51.660;7.082;2023-07-24T15:00:15;22.40;99.90
5086;DHT22;4715;51.660;7.082;2023-07-24T15:02:39;22.40;99.90
5086;DHT22;4715;51.660;7.082;2023-07-24T15:05:01;22.40;99.90
5086;DHT22;4715;51.660;7.082;2023-07-24T15:07:26;22.40;99.90
5086;DHT22;4715;51.660;7.082;2023-07-24T15:09:53;22.40;99.90
5086;DHT22;4715;51.660;7.082;2023-07-24T15:12:16;22.30;99.90
5086;DHT22;4715;51.660;7.082;2023-07-24T15:14:37;22.20;99.90
5086;DHT22;4715;51.660;7.082;2023-07-24T15:17:00;22.20;99.90
5086;DHT22;4715;51.660;7.082;2023-07-24T15:19:23;22.10;99.90
5086;DHT22;4715;51.660;7.082;2023-07-24T15:21:45;22.00;99.90
5086;DHT22;4715;51.660;7.082;2023-07-24T15:24:08;22.00;99.90
5086;DHT22;4715;51.660;7.082;2023-07-24T15:26:39;21.90;99.90
5086;DHT22;4715;51.660;7.082;2023-07-24T15:29:00;21.80;99.90
5086;DHT22;4715;51.660;7.082;2023-07-24T15:31:22;21.80;99.90
5086;DHT22;4715;51.660;7.082;2023-07-24T15:33:44;21.80;99.90
5086;DHT22;4715;51.660;7.082;2023-07-24T15:36:06;21.70;99.90